sensor_id;sensor_type;location;lat;lon;timestamp;P1;durP1;ratioP1;P2;durP2;ratioP2
2031;SDS011;27625;50.422;7.944;2023-01-04T00:02:36;9.20;;;6.40;;
2031;SDS011;27625;50.422;7.944;2023-01-04T00:05:03;8.83;;;5.73;;
2031;SDS011;27625;50.422;7.944;2023-01-04T00:07:30;13.03;;;6.90;;
2031;SDS011;27625;50.422;7.944;2023-01-04T00:09:58;9.63;;;6.30;;
2031;SDS011;27625;50.422;7.944;2023-01-04T00:12:25;9.10;;;6.40;;
2031;SDS011;27625;50.422;7.944;2023-01-04T00:14:51;7.80;;;6.30;;
2031;SDS011;27625;50.422;7.944;2023-01-04T00:17:18;10.67;;;6.50;;
2031;SDS011;27625;50.422;7.944;2023-01-04T00:19:46;9.80;;;6.63;;
2031;SDS011;27625;50.422;7.944;2023-01-04T00:22:14;10.50;;;6.40;;
2031;SDS011;27625;50.422;7.944;2023-01-04T00:24:41;10.63;;;6.77;;
2031;SDS011;27625;50.422;7.944;2023-01-04T00:27:07;9.20;;;6.47;;
2031;SDS011;27625;50.422;7.944;2023-01-04T00:29:35;11.53;;;6.20;;
2031;SDS011;27625;50.422;7.944;2023-01-04T00:32:01;10.07;;;6.30;;
2031;SDS011;27625;50.422;7.944;2023-01-04T00:34:28;13.60;;;7.10;;
2031;SDS011;27625;50.422;7.944;2023-01-04T00:36:56;11.70;;;8.37;;
2031;SDS011;27625;50.422;7.944;2023-01-04T00:39:24;16.90;;;8.87;;
2031;SDS011;27625;50.422;7.944;2023-01-04T00:41:51;15.90;;;7.80;;
2031;SDS011;27625;50.422;7.944;2023-01-04T00:44:19;11.33;;;7.53;;
2031;SDS011;27625;50.422;7.944;2023-01-04T00:46:46;9.60;;;6.60;;
2031;SDS011;27625;50.422;7.944;2023-01-04T00:49:14;12.47;;;7.03;;
2031;SDS011;27625;50.422;7.944;2023-01-04T00:51:41;9.37;;;6.70;;
2031;SDS011;27625;50.422;7.944;2023-01-04T00:54:12;8.90;;;5.90;;
2031;SDS011;27625;50.422;7.944;2023-01-04T00:56:39;8.90;;;5.60;;
2031;SDS011;27625;50.422;7.944;2023-01-04T00:59:07;7.20;;;5.40;;
2031;SDS011;27625;50.422;7.944;2023-01-04T01:01:35;7.37;;;5.67;;
2031;SDS011;27625;50.422;7.944;2023-01-04T01:04:02;9.47;;;5.67;;
2031;SDS011;27625;50.422;7.944;2023-01-04T01:06:30;10.13;;;5.10;;
2031;SDS011;27625;50.422;7.944;2023-01-04T01:08:58;8.93;;;5.93;;
2031;SDS011;27625;50.422;7.944;2023-01-04T01:11:26;17.23;;;6.30;;
2031;SDS011;27625;50.422;7.944;2023-01-04T01:13:53;16.80;;;6.60;;
2031;SDS011;27625;50.422;7.944;2023-01-04T01:16:21;10.13;;;5.80;;
2031;SDS011;27625;50.422;7.944;2023-01-04T01:18:50;9.73;;;6.50;;
2031;SDS011;27625;50.422;7.944;2023-01-04T01:21:18;8.17;;;5.90;;
2031;SDS011;27625;50.422;7.944;2023-01-04T01:23:49;10.70;;;6.10;;
2031;SDS011;27625;50.422;7.944;2023-01-04T01:26:22;9.93;;;6.03;;
2031;SDS011;27625;50.422;7.944;2023-01-04T01:28:53;9.33;;;6.30;;
2031;SDS011;27625;50.422;7.944;2023-01-04T01:31:21;7.50;;;5.90;;
2031;SDS011;27625;50.422;7.944;2023-01-04T01:33:49;9.67;;;6.10;;
2031;SDS011;27625;50.422;7.944;2023-01-04T01:36:17;9.03;;;5.87;;
2031;SDS011;27625;50.422;7.944;2023-01-04T01:38:46;9.57;;;5.53;;
2031;SDS011;27625;50.422;7.944;2023-01-04T01:41:15;9.77;;;5.90;;
2031;SDS011;27625;50.422;7.944;2023-01-04T01:43:48;11.60;;;5.87;;
2031;SDS011;27625;50.422;7.944;2023-01-04T01:48:49;10.30;;;5.60;;
2031;SDS011;27625;50.422;7.944;2023-01-04T01:51:17;9.83;;;6.00;;
2031;SDS011;27625;50.422;7.944;2023-01-04T01:53:45;7.53;;;5.33;;
2031;SDS011;27625;50.422;7.944;2023-01-04T01:56:14;6.70;;;5.10;;
2031;SDS011;27625;50.422;7.944;2023-01-04T01:58:45;7.43;;;4.93;;
2031;SDS011;27625;50.422;7.944;2023-01-04T02:01:15;6.37;;;5.20;;
2031;SDS011;27625;50.422;7.944;2023-01-04T02:03:43;9.00;;;5.90;;
2031;SDS011;27625;50.422;7.944;2023-01-04T02:06:13;9.43;;;5.40;;
2031;SDS011;27625;50.422;7.944;2023-01-04T02:08:45;11.07;;;5.00;;
2031;SDS011;27625;50.422;7.944;2023-01-04T02:11:13;9.37;;;5.30;;
2031;SDS011;27625;50.422;7.944;2023-01-04T02:13:40;8.00;;;5.13;;
2031;SDS011;27625;50.422;7.944;2023-01-04T02:16:28;7.93;;;5.30;;
2031;SDS011;27625;50.422;7.944;2023-01-04T02:19:04;10.57;;;5.83;;
2031;SDS011;27625;50.422;7.944;2023-01-04T02:21:39;8.47;;;6.23;;
2031;SDS011;27625;50.422;7.944;2023-01-04T02:24:19;9.17;;;5.73;;
2031;SDS011;27625;50.422;7.944;2023-01-04T02:27:18;7.97;;;5.47;;
2031;SDS011;27625;50.422;7.944;2023-01-04T02:30:14;9.70;;;5.43;;
2031;SDS011;27625;50.422;7.944;2023-01-04T02:32:56;9.40;;;6.07;;
2031;SDS011;27625;50.422;7.944;2023-01-04T02:35:33;14.00;;;5.33;;
2031;SDS011;27625;50.422;7.944;2023-01-04T02:38:08;9.97;;;5.43;;
2031;SDS011;27625;50.422;7.944;2023-01-04T02:40:42;7.43;;;5.30;;
2031;SDS011;27625;50.422;7.944;2023-01-04T02:43:14;8.43;;;6.50;;
2031;SDS011;27625;50.422;7.944;2023-01-04T02:46:04;8.60;;;6.10;;
2031;SDS011;27625;50.422;7.944;2023-01-04T02:48:37;10.60;;;6.20;;
2031;SDS011;27625;50.422;7.944;2023-01-04T02:51:23;11.17;;;6.90;;
2031;SDS011;27625;50.422;7.944;2023-01-04T02:53:54;10.13;;;6.30;;
2031;SDS011;27625;50.422;7.944;2023-01-04T02:56:24;11.53;;;6.80;;
2031;SDS011;27625;50.422;7.944;2023-01-04T02:59:17;9.90;;;7.17;;
2031;SDS011;27625;50.422;7.944;2023-01-04T03:01:56;10.53;;;6.70;;
2031;SDS011;27625;50.422;7.944;2023-01-04T03:04:53;11.37;;;8.10;;
2031;SDS011;27625;50.422;7.944;2023-01-04T03:07:40;12.70;;;7.37;;
2031;SDS011;27625;50.422;7.944;2023-01-04T03:10:15;15.50;;;7.23;;
2031;SDS011;27625;50.422;7.944;2023-01-04T03:12:47;13.33;;;7.23;;
2031;SDS011;27625;50.422;7.944;2023-01-04T03:15:15;13.80;;;8.40;;
2031;SDS011;27625;50.422;7.944;2023-01-04T03:17:46;14.03;;;8.60;;
2031;SDS011;27625;50.422;7.944;2023-01-04T03:20:17;11.33;;;7.87;;
2031;SDS011;27625;50.422;7.944;2023-01-04T03:22:49;14.10;;;8.23;;
2031;SDS011;27625;50.422;7.944;2023-01-04T03:25:36;12.93;;;8.03;;
2031;SDS011;27625;50.422;7.944;2023-01-04T03:28:23;14.70;;;8.37;;
2031;SDS011;27625;50.422;7.944;2023-01-04T03:31:10;12.43;;;7.93;;
2031;SDS011;27625;50.422;7.944;2023-01-04T03:33:57;12.73;;;7.73;;
2031;SDS011;27625;50.422;7.944;2023-01-04T03:36:46;14.07;;;7.77;;
2031;SDS011;27625;50.422;7.944;2023-01-04T03:39:25;9.50;;;7.17;;
2031;SDS011;27625;50.422;7.944;2023-01-04T03:42:15;14.13;;;7.53;;
2031;SDS011;27625;50.422;7.944;2023-01-04T03:45:05;10.90;;;7.30;;
2031;SDS011;27625;50.422;7.944;2023-01-04T03:47:55;11.60;;;7.63;;
2031;SDS011;27625;50.422;7.944;2023-01-04T03:50:44;14.93;;;7.80;;
2031;SDS011;27625;50.422;7.944;2023-01-04T03:53:16;12.87;;;7.60;;
2031;SDS011;27625;50.422;7.944;2023-01-04T03:55:44;12.93;;;6.93;;
2031;SDS011;27625;50.422;7.944;2023-01-04T03:58:13;11.63;;;7.57;;
2031;SDS011;27625;50.422;7.944;2023-01-04T04:00:40;13.20;;;7.47;;
2031;SDS011;27625;50.422;7.944;2023-01-04T04:03:14;9.43;;;6.93;;
2031;SDS011;27625;50.422;7.944;2023-01-04T04:05:41;8.77;;;6.47;;
2031;SDS011;27625;50.422;7.944;2023-01-04T04:08:36;10.23;;;6.73;;
2031;SDS011;27625;50.422;7.944;2023-01-04T04:11:03;11.63;;;7.20;;
2031;SDS011;27625;50.422;7.944;2023-01-04T04:13:48;9.90;;;6.97;;
2031;SDS011;27625;50.422;7.944;2023-01-04T04:16:15;11.33;;;7.20;;
2031;SDS011;27625;50.422;7.944;2023-01-04T04:18:44;13.60;;;7.50;;
2031;SDS011;27625;50.422;7.944;2023-01-04T04:21:18;8.77;;;6.23;;
2031;SDS011;27625;50.422;7.944;2023-01-04T04:23:46;9.47;;;7.37;;
2031;SDS011;27625;50.422;7.944;2023-01-04T04:26:12;10.60;;;6.80;;
2031;SDS011;27625;50.422;7.944;2023-01-04T04:31:21;12.80;;;6.80;;
2031;SDS011;27625;50.422;7.944;2023-01-04T04:33:56;13.33;;;6.90;;
2031;SDS011;27625;50.422;7.944;2023-01-04T04:36:23;10.87;;;6.30;;
2031;SDS011;27625;50.422;7.944;2023-01-04T04:38:54;10.27;;;6.53;;
2031;SDS011;27625;50.422;7.944;2023-01-04T04:41:28;10.67;;;6.87;;
2031;SDS011;27625;50.422;7.944;2023-01-04T04:44:09;9.50;;;6.43;;
2031;SDS011;27625;50.422;7.944;2023-01-04T04:46:42;10.10;;;6.37;;
2031;SDS011;27625;50.422;7.944;2023-01-04T04:49:11;9.23;;;6.00;;
2031;SDS011;27625;50.422;7.944;2023-01-04T04:54:19;10.00;;;5.83;;
2031;SDS011;27625;50.422;7.944;2023-01-04T04:56:51;13.20;;;6.23;;
2031;SDS011;27625;50.422;7.944;2023-01-04T04:59:19;12.00;;;6.30;;
2031;SDS011;27625;50.422;7.944;2023-01-04T05:01:52;10.00;;;6.20;;
2031;SDS011;27625;50.422;7.944;2023-01-04T05:04:19;10.00;;;6.27;;
2031;SDS011;27625;50.422;7.944;2023-01-04T05:06:47;9.23;;;5.67;;
2031;SDS011;27625;50.422;7.944;2023-01-04T05:09:15;10.20;;;5.80;;
2031;SDS011;27625;50.422;7.944;2023-01-04T05:11:43;10.47;;;6.60;;
2031;SDS011;27625;50.422;7.944;2023-01-04T05:14:36;7.80;;;5.53;;
2031;SDS011;27625;50.422;7.944;2023-01-04T05:17:03;9.00;;;6.00;;
2031;SDS011;27625;50.422;7.944;2023-01-04T05:19:31;7.30;;;5.27;;
2031;SDS011;27625;50.422;7.944;2023-01-04T05:22:01;8.60;;;5.17;;
2031;SDS011;27625;50.422;7.944;2023-01-04T05:24:30;11.23;;;4.97;;
2031;SDS011;27625;50.422;7.944;2023-01-04T05:27:04;9.63;;;5.90;;
2031;SDS011;27625;50.422;7.944;2023-01-04T05:29:36;8.17;;;6.00;;
2031;SDS011;27625;50.422;7.944;2023-01-04T05:32:21;8.47;;;4.73;;
2031;SDS011;27625;50.422;7.944;2023-01-04T05:34:50;9.13;;;4.80;;
2031;SDS011;27625;50.422;7.944;2023-01-04T05:39:48;10.00;;;4.80;;
2031;SDS011;27625;50.422;7.944;2023-01-04T05:42:17;7.00;;;4.67;;
2031;SDS011;27625;50.422;7.944;2023-01-04T05:44:56;8.10;;;4.73;;
2031;SDS011;27625;50.422;7.944;2023-01-04T05:47:24;7.53;;;4.57;;
2031;SDS011;27625;50.422;7.944;2023-01-04T05:49:51;7.20;;;4.00;;
2031;SDS011;27625;50.422;7.944;2023-01-04T05:52:20;7.77;;;4.43;;
2031;SDS011;27625;50.422;7.944;2023-01-04T05:54:47;7.03;;;3.97;;
2031;SDS011;27625;50.422;7.944;2023-01-04T05:57:14;5.03;;;4.00;;
2031;SDS011;27625;50.422;7.944;2023-01-04T05:59:49;11.40;;;4.60;;
2031;SDS011;27625;50.422;7.944;2023-01-04T06:02:29;7.97;;;5.00;;
2031;SDS011;27625;50.422;7.944;2023-01-04T06:05:03;8.03;;;4.30;;
2031;SDS011;27625;50.422;7.944;2023-01-04T06:07:30;7.17;;;4.90;;
2031;SDS011;27625;50.422;7.944;2023-01-04T06:09:59;13.63;;;4.73;;
2031;SDS011;27625;50.422;7.944;2023-01-04T06:14:58;9.67;;;8.13;;
2031;SDS011;27625;50.422;7.944;2023-01-04T06:17:25;6.37;;;4.77;;
2031;SDS011;27625;50.422;7.944;2023-01-04T06:19:53;9.50;;;4.13;;
2031;SDS011;27625;50.422;7.944;2023-01-04T06:22:23;6.53;;;3.63;;
2031;SDS011;27625;50.422;7.944;2023-01-04T06:24:51;6.73;;;4.43;;
2031;SDS011;27625;50.422;7.944;2023-01-04T06:27:17;5.20;;;3.80;;
2031;SDS011;27625;50.422;7.944;2023-01-04T06:29:46;5.10;;;3.27;;
2031;SDS011;27625;50.422;7.944;2023-01-04T06:32:12;4.40;;;2.77;;
2031;SDS011;27625;50.422;7.944;2023-01-04T06:34:40;5.23;;;3.03;;
2031;SDS011;27625;50.422;7.944;2023-01-04T06:37:07;9.20;;;3.57;;
2031;SDS011;27625;50.422;7.944;2023-01-04T06:39:34;7.37;;;5.37;;
2031;SDS011;27625;50.422;7.944;2023-01-04T06:42:01;5.17;;;3.90;;
2031;SDS011;27625;50.422;7.944;2023-01-04T06:44:28;3.90;;;2.47;;
2031;SDS011;27625;50.422;7.944;2023-01-04T06:46:56;3.60;;;2.30;;
2031;SDS011;27625;50.422;7.944;2023-01-04T06:49:23;4.03;;;2.17;;
2031;SDS011;27625;50.422;7.944;2023-01-04T06:51:50;4.87;;;2.50;;
2031;SDS011;27625;50.422;7.944;2023-01-04T06:54:17;4.30;;;2.20;;
2031;SDS011;27625;50.422;7.944;2023-01-04T06:56:44;3.20;;;2.27;;
2031;SDS011;27625;50.422;7.944;2023-01-04T06:59:10;3.80;;;2.23;;
2031;SDS011;27625;50.422;7.944;2023-01-04T07:01:37;5.77;;;2.50;;
2031;SDS011;27625;50.422;7.944;2023-01-04T07:04:05;6.63;;;2.30;;
2031;SDS011;27625;50.422;7.944;2023-01-04T07:06:31;3.00;;;2.20;;
2031;SDS011;27625;50.422;7.944;2023-01-04T07:08:58;2.70;;;2.03;;
2031;SDS011;27625;50.422;7.944;2023-01-04T07:11:25;5.37;;;1.93;;
2031;SDS011;27625;50.422;7.944;2023-01-04T07:13:51;2.53;;;1.80;;
2031;SDS011;27625;50.422;7.944;2023-01-04T07:16:18;3.70;;;2.03;;
2031;SDS011;27625;50.422;7.944;2023-01-04T07:18:45;2.90;;;1.37;;
2031;SDS011;27625;50.422;7.944;2023-01-04T07:21:13;7.20;;;2.07;;
2031;SDS011;27625;50.422;7.944;2023-01-04T07:23:42;4.70;;;2.00;;
2031;SDS011;27625;50.422;7.944;2023-01-04T07:26:09;4.00;;;3.03;;
2031;SDS011;27625;50.422;7.944;2023-01-04T07:28:35;2.70;;;2.00;;
2031;SDS011;27625;50.422;7.944;2023-01-04T07:31:19;2.50;;;1.70;;
2031;SDS011;27625;50.422;7.944;2023-01-04T07:33:48;2.90;;;1.80;;
2031;SDS011;27625;50.422;7.944;2023-01-04T07:36:16;5.43;;;2.57;;
2031;SDS011;27625;50.422;7.944;2023-01-04T07:38:43;3.67;;;2.40;;
2031;SDS011;27625;50.422;7.944;2023-01-04T07:41:09;3.00;;;2.10;;
2031;SDS011;27625;50.422;7.944;2023-01-04T07:43:36;4.43;;;2.60;;
2031;SDS011;27625;50.422;7.944;2023-01-04T07:46:03;2.40;;;1.50;;
2031;SDS011;27625;50.422;7.944;2023-01-04T07:48:31;2.97;;;1.40;;
2031;SDS011;27625;50.422;7.944;2023-01-04T07:50:58;4.77;;;3.60;;
2031;SDS011;27625;50.422;7.944;2023-01-04T07:53:26;3.60;;;2.30;;
2031;SDS011;27625;50.422;7.944;2023-01-04T07:55:56;2.40;;;1.53;;
2031;SDS011;27625;50.422;7.944;2023-01-04T07:58:23;2.60;;;1.80;;
2031;SDS011;27625;50.422;7.944;2023-01-04T08:00:50;4.83;;;2.97;;
2031;SDS011;27625;50.422;7.944;2023-01-04T08:03:16;3.73;;;2.00;;
2031;SDS011;27625;50.422;7.944;2023-01-04T08:05:44;3.37;;;1.87;;
2031;SDS011;27625;50.422;7.944;2023-01-04T08:08:17;2.90;;;1.73;;
2031;SDS011;27625;50.422;7.944;2023-01-04T08:10:47;3.00;;;2.10;;
2031;SDS011;27625;50.422;7.944;2023-01-04T08:13:20;3.40;;;2.23;;
2031;SDS011;27625;50.422;7.944;2023-01-04T08:15:51;2.90;;;1.90;;
2031;SDS011;27625;50.422;7.944;2023-01-04T08:18:23;3.73;;;2.00;;
2031;SDS011;27625;50.422;7.944;2023-01-04T08:20:59;4.33;;;2.40;;
2031;SDS011;27625;50.422;7.944;2023-01-04T08:23:28;2.40;;;1.83;;
2031;SDS011;27625;50.422;7.944;2023-01-04T08:26:05;3.23;;;1.87;;
2031;SDS011;27625;50.422;7.944;2023-01-04T08:28:36;2.70;;;1.60;;
2031;SDS011;27625;50.422;7.944;2023-01-04T08:31:05;2.30;;;1.50;;
2031;SDS011;27625;50.422;7.944;2023-01-04T08:33:33;2.70;;;1.90;;
2031;SDS011;27625;50.422;7.944;2023-01-04T08:36:07;2.83;;;1.80;;
2031;SDS011;27625;50.422;7.944;2023-01-04T08:38:38;3.00;;;1.90;;
2031;SDS011;27625;50.422;7.944;2023-01-04T08:41:12;2.57;;;1.50;;
2031;SDS011;27625;50.422;7.944;2023-01-04T08:43:39;3.03;;;2.30;;
2031;SDS011;27625;50.422;7.944;2023-01-04T08:46:07;3.90;;;1.80;;
2031;SDS011;27625;50.422;7.944;2023-01-04T08:48:34;2.60;;;2.00;;
2031;SDS011;27625;50.422;7.944;2023-01-04T08:51:03;3.73;;;1.97;;
2031;SDS011;27625;50.422;7.944;2023-01-04T08:53:33;2.30;;;1.80;;
2031;SDS011;27625;50.422;7.944;2023-01-04T08:56:00;3.30;;;1.83;;
2031;SDS011;27625;50.422;7.944;2023-01-04T08:58:30;3.10;;;1.70;;
2031;SDS011;27625;50.422;7.944;2023-01-04T09:00:58;2.80;;;2.07;;
2031;SDS011;27625;50.422;7.944;2023-01-04T09:03:28;2.90;;;1.70;;
2031;SDS011;27625;50.422;7.944;2023-01-04T09:06:02;4.40;;;2.00;;
2031;SDS011;27625;50.422;7.944;2023-01-04T09:08:31;3.70;;;1.73;;
2031;SDS011;27625;50.422;7.944;2023-01-04T09:11:02;3.00;;;1.70;;
2031;SDS011;27625;50.422;7.944;2023-01-04T09:13:31;2.67;;;2.20;;
2031;SDS011;27625;50.422;7.944;2023-01-04T09:15:59;2.90;;;2.10;;
2031;SDS011;27625;50.422;7.944;2023-01-04T09:18:26;2.80;;;1.87;;
2031;SDS011;27625;50.422;7.944;2023-01-04T09:20:53;3.00;;;1.80;;
2031;SDS011;27625;50.422;7.944;2023-01-04T09:23:20;4.80;;;1.63;;
2031;SDS011;27625;50.422;7.944;2023-01-04T09:25:52;3.07;;;1.70;;
2031;SDS011;27625;50.422;7.944;2023-01-04T09:28:20;3.60;;;2.00;;
2031;SDS011;27625;50.422;7.944;2023-01-04T09:30:57;3.10;;;2.20;;
2031;SDS011;27625;50.422;7.944;2023-01-04T09:33:25;2.70;;;2.07;;
2031;SDS011;27625;50.422;7.944;2023-01-04T09:35:59;2.40;;;1.63;;
2031;SDS011;27625;50.422;7.944;2023-01-04T09:38:28;3.03;;;1.80;;
2031;SDS011;27625;50.422;7.944;2023-01-04T09:40:59;3.50;;;1.70;;
2031;SDS011;27625;50.422;7.944;2023-01-04T09:43:33;3.43;;;2.40;;
2031;SDS011;27625;50.422;7.944;2023-01-04T09:46:10;4.70;;;3.40;;
2031;SDS011;27625;50.422;7.944;2023-01-04T09:48:39;4.57;;;2.80;;
2031;SDS011;27625;50.422;7.944;2023-01-04T09:51:10;3.60;;;2.50;;
2031;SDS011;27625;50.422;7.944;2023-01-04T09:53:40;3.33;;;2.17;;
2031;SDS011;27625;50.422;7.944;2023-01-04T09:56:15;2.63;;;1.93;;
2031;SDS011;27625;50.422;7.944;2023-01-04T09:58:45;2.47;;;1.97;;
2031;SDS011;27625;50.422;7.944;2023-01-04T10:01:13;5.23;;;3.10;;
2031;SDS011;27625;50.422;7.944;2023-01-04T10:03:45;3.00;;;1.70;;
2031;SDS011;27625;50.422;7.944;2023-01-04T10:06:17;2.70;;;1.60;;
2031;SDS011;27625;50.422;7.944;2023-01-04T10:08:50;4.13;;;1.40;;
2031;SDS011;27625;50.422;7.944;2023-01-04T10:11:20;3.27;;;2.03;;
2031;SDS011;27625;50.422;7.944;2023-01-04T10:13:58;1.90;;;1.20;;
2031;SDS011;27625;50.422;7.944;2023-01-04T10:16:38;2.10;;;1.30;;
2031;SDS011;27625;50.422;7.944;2023-01-04T10:19:19;2.70;;;1.60;;
2031;SDS011;27625;50.422;7.944;2023-01-04T10:21:55;2.60;;;1.53;;
2031;SDS011;27625;50.422;7.944;2023-01-04T10:24:42;3.13;;;1.50;;
2031;SDS011;27625;50.422;7.944;2023-01-04T10:27:17;2.20;;;1.30;;
2031;SDS011;27625;50.422;7.944;2023-01-04T10:29:56;3.90;;;1.30;;
2031;SDS011;27625;50.422;7.944;2023-01-04T10:32:33;2.70;;;1.60;;
2031;SDS011;27625;50.422;7.944;2023-01-04T10:35:11;3.20;;;1.20;;
2031;SDS011;27625;50.422;7.944;2023-01-04T10:37:52;2.40;;;1.20;;
2031;SDS011;27625;50.422;7.944;2023-01-04T10:40:30;1.90;;;1.20;;
2031;SDS011;27625;50.422;7.944;2023-01-04T10:43:10;4.80;;;1.50;;
2031;SDS011;27625;50.422;7.944;2023-01-04T10:45:50;2.00;;;1.13;;
2031;SDS011;27625;50.422;7.944;2023-01-04T10:48:24;2.00;;;1.10;;
2031;SDS011;27625;50.422;7.944;2023-01-04T10:50:55;2.00;;;1.13;;
2031;SDS011;27625;50.422;7.944;2023-01-04T10:53:24;2.33;;;1.40;;
2031;SDS011;27625;50.422;7.944;2023-01-04T10:55:56;2.43;;;1.40;;
2031;SDS011;27625;50.422;7.944;2023-01-04T10:58:30;2.60;;;1.50;;
2031;SDS011;27625;50.422;7.944;2023-01-04T11:01:05;2.40;;;1.40;;
2031;SDS011;27625;50.422;7.944;2023-01-04T11:03:41;2.47;;;1.40;;
2031;SDS011;27625;50.422;7.944;2023-01-04T11:06:14;2.53;;;1.80;;
2031;SDS011;27625;50.422;7.944;2023-01-04T11:08:48;2.50;;;1.53;;
2031;SDS011;27625;50.422;7.944;2023-01-04T11:13:55;3.10;;;1.70;;
2031;SDS011;27625;50.422;7.944;2023-01-04T11:16:23;2.50;;;1.40;;
2031;SDS011;27625;50.422;7.944;2023-01-04T11:18:53;2.03;;;1.20;;
2031;SDS011;27625;50.422;7.944;2023-01-04T11:21:22;3.87;;;1.83;;
2031;SDS011;27625;50.422;7.944;2023-01-04T11:23:55;3.93;;;2.53;;
2031;SDS011;27625;50.422;7.944;2023-01-04T11:26:30;5.00;;;2.70;;
2031;SDS011;27625;50.422;7.944;2023-01-04T11:29:12;9.37;;;5.17;;
2031;SDS011;27625;50.422;7.944;2023-01-04T11:31:49;3.27;;;2.00;;
2031;SDS011;27625;50.422;7.944;2023-01-04T11:40:17;2.30;;;1.50;;
2031;SDS011;27625;50.422;7.944;2023-01-04T11:43:09;2.20;;;1.63;;
2031;SDS011;27625;50.422;7.944;2023-01-04T11:45:40;4.10;;;1.47;;
2031;SDS011;27625;50.422;7.944;2023-01-04T11:48:18;2.10;;;1.30;;
2031;SDS011;27625;50.422;7.944;2023-01-04T11:50:47;2.10;;;1.30;;
2031;SDS011;27625;50.422;7.944;2023-01-04T11:53:26;2.80;;;1.50;;
2031;SDS011;27625;50.422;7.944;2023-01-04T11:58:39;2.43;;;1.47;;
2031;SDS011;27625;50.422;7.944;2023-01-04T12:01:19;4.00;;;2.23;;
2031;SDS011;27625;50.422;7.944;2023-01-04T12:03:49;3.60;;;2.17;;
2031;SDS011;27625;50.422;7.944;2023-01-04T12:06:21;2.67;;;1.93;;
2031;SDS011;27625;50.422;7.944;2023-01-04T12:08:57;2.40;;;1.77;;
2031;SDS011;27625;50.422;7.944;2023-01-04T12:11:27;5.13;;;2.10;;
2031;SDS011;27625;50.422;7.944;2023-01-04T12:13:58;4.30;;;1.73;;
2031;SDS011;27625;50.422;7.944;2023-01-04T12:16:28;3.23;;;2.20;;
2031;SDS011;27625;50.422;7.944;2023-01-04T12:19:08;3.00;;;2.20;;
2031;SDS011;27625;50.422;7.944;2023-01-04T12:21:37;3.03;;;1.93;;
2031;SDS011;27625;50.422;7.944;2023-01-04T12:24:15;4.00;;;2.70;;
2031;SDS011;27625;50.422;7.944;2023-01-04T12:26:43;3.97;;;2.80;;
2031;SDS011;27625;50.422;7.944;2023-01-04T12:47:48;2.50;;;1.30;;
2031;SDS011;27625;50.422;7.944;2023-01-04T12:53:56;3.03;;;1.57;;
2031;SDS011;27625;50.422;7.944;2023-01-04T12:59:36;2.10;;;1.30;;
2031;SDS011;27625;50.422;7.944;2023-01-04T13:02:20;3.33;;;1.97;;
2031;SDS011;27625;50.422;7.944;2023-01-04T13:04:49;4.17;;;1.90;;
2031;SDS011;27625;50.422;7.944;2023-01-04T13:07:24;2.40;;;1.47;;
2031;SDS011;27625;50.422;7.944;2023-01-04T13:09:56;2.60;;;1.73;;
2031;SDS011;27625;50.422;7.944;2023-01-04T13:12:34;3.30;;;2.20;;
2031;SDS011;27625;50.422;7.944;2023-01-04T13:15:16;2.10;;;1.17;;
2031;SDS011;27625;50.422;7.944;2023-01-04T13:17:48;3.60;;;1.50;;
2031;SDS011;27625;50.422;7.944;2023-01-04T13:20:26;2.43;;;1.30;;
2031;SDS011;27625;50.422;7.944;2023-01-04T13:22:57;2.80;;;1.67;;
2031;SDS011;27625;50.422;7.944;2023-01-04T13:25:24;2.70;;;1.50;;
2031;SDS011;27625;50.422;7.944;2023-01-04T13:27:55;2.13;;;1.10;;
2031;SDS011;27625;50.422;7.944;2023-01-04T13:30:28;2.10;;;1.30;;
2031;SDS011;27625;50.422;7.944;2023-01-04T13:33:12;1.90;;;1.30;;
2031;SDS011;27625;50.422;7.944;2023-01-04T13:35:42;2.00;;;1.13;;
2031;SDS011;27625;50.422;7.944;2023-01-04T13:38:10;3.13;;;1.50;;
2031;SDS011;27625;50.422;7.944;2023-01-04T13:40:42;2.67;;;1.60;;
2031;SDS011;27625;50.422;7.944;2023-01-04T13:43:12;2.37;;;1.20;;
2031;SDS011;27625;50.422;7.944;2023-01-04T13:46:07;2.80;;;1.80;;
2031;SDS011;27625;50.422;7.944;2023-01-04T13:48:39;2.83;;;1.70;;
2031;SDS011;27625;50.422;7.944;2023-01-04T13:51:13;2.90;;;1.40;;
2031;SDS011;27625;50.422;7.944;2023-01-04T13:53:53;2.70;;;1.60;;
2031;SDS011;27625;50.422;7.944;2023-01-04T13:56:27;3.00;;;1.83;;
2031;SDS011;27625;50.422;7.944;2023-01-04T13:59:01;3.70;;;1.80;;
2031;SDS011;27625;50.422;7.944;2023-01-04T14:01:35;2.10;;;1.30;;
2031;SDS011;27625;50.422;7.944;2023-01-04T14:04:04;2.20;;;1.40;;
2031;SDS011;27625;50.422;7.944;2023-01-04T14:06:33;2.40;;;1.27;;
2031;SDS011;27625;50.422;7.944;2023-01-04T14:09:13;1.80;;;1.00;;
2031;SDS011;27625;50.422;7.944;2023-01-04T14:11:44;2.30;;;1.40;;
2031;SDS011;27625;50.422;7.944;2023-01-04T14:14:32;2.27;;;1.20;;
2031;SDS011;27625;50.422;7.944;2023-01-04T14:17:08;2.13;;;1.33;;
2031;SDS011;27625;50.422;7.944;2023-01-04T14:31:20;2.30;;;1.40;;
2031;SDS011;27625;50.422;7.944;2023-01-04T14:33:54;3.00;;;2.10;;
2031;SDS011;27625;50.422;7.944;2023-01-04T14:36:22;3.13;;;1.90;;
2031;SDS011;27625;50.422;7.944;2023-01-04T14:41:53;2.60;;;1.43;;
2031;SDS011;27625;50.422;7.944;2023-01-04T14:44:22;2.60;;;1.80;;
2031;SDS011;27625;50.422;7.944;2023-01-04T14:46:52;3.47;;;1.80;;
2031;SDS011;27625;50.422;7.944;2023-01-04T14:49:20;4.10;;;1.83;;
2031;SDS011;27625;50.422;7.944;2023-01-04T14:51:47;3.13;;;1.70;;
2031;SDS011;27625;50.422;7.944;2023-01-04T14:54:18;2.93;;;1.97;;
2031;SDS011;27625;50.422;7.944;2023-01-04T14:56:46;4.10;;;3.00;;
2031;SDS011;27625;50.422;7.944;2023-01-04T14:59:13;3.20;;;2.27;;
2031;SDS011;27625;50.422;7.944;2023-01-04T15:01:40;2.23;;;1.33;;
2031;SDS011;27625;50.422;7.944;2023-01-04T15:04:09;2.30;;;1.50;;
2031;SDS011;27625;50.422;7.944;2023-01-04T15:09:19;2.27;;;1.27;;
2031;SDS011;27625;50.422;7.944;2023-01-04T15:11:47;2.70;;;1.90;;
2031;SDS011;27625;50.422;7.944;2023-01-04T15:14:14;2.53;;;1.77;;
2031;SDS011;27625;50.422;7.944;2023-01-04T15:16:40;3.20;;;1.80;;
2031;SDS011;27625;50.422;7.944;2023-01-04T15:19:13;2.90;;;1.60;;
2031;SDS011;27625;50.422;7.944;2023-01-04T15:21:41;2.70;;;1.80;;
2031;SDS011;27625;50.422;7.944;2023-01-04T15:24:09;2.43;;;1.63;;
2031;SDS011;27625;50.422;7.944;2023-01-04T15:26:36;2.10;;;1.00;;
2031;SDS011;27625;50.422;7.944;2023-01-04T15:29:03;2.70;;;1.50;;
2031;SDS011;27625;50.422;7.944;2023-01-04T15:31:31;1.87;;;1.10;;
2031;SDS011;27625;50.422;7.944;2023-01-04T15:33:58;1.97;;;1.20;;
2031;SDS011;27625;50.422;7.944;2023-01-04T15:36:25;2.60;;;1.60;;
2031;SDS011;27625;50.422;7.944;2023-01-04T15:38:52;2.30;;;1.50;;
2031;SDS011;27625;50.422;7.944;2023-01-04T15:41:20;2.43;;;1.50;;
2031;SDS011;27625;50.422;7.944;2023-01-04T15:44:04;2.30;;;1.53;;
2031;SDS011;27625;50.422;7.944;2023-01-04T15:46:35;2.40;;;1.10;;
2031;SDS011;27625;50.422;7.944;2023-01-04T15:49:02;2.20;;;1.40;;
2031;SDS011;27625;50.422;7.944;2023-01-04T15:51:28;2.30;;;1.17;;
2031;SDS011;27625;50.422;7.944;2023-01-04T15:53:56;2.70;;;1.47;;
2031;SDS011;27625;50.422;7.944;2023-01-04T15:56:26;2.30;;;1.47;;
2031;SDS011;27625;50.422;7.944;2023-01-04T15:58:54;2.20;;;1.43;;
2031;SDS011;27625;50.422;7.944;2023-01-04T16:01:21;3.20;;;1.70;;
2031;SDS011;27625;50.422;7.944;2023-01-04T16:03:47;4.00;;;1.63;;
2031;SDS011;27625;50.422;7.944;2023-01-04T16:06:15;2.00;;;1.20;;
2031;SDS011;27625;50.422;7.944;2023-01-04T16:08:45;2.80;;;1.83;;
2031;SDS011;27625;50.422;7.944;2023-01-04T16:11:13;2.73;;;1.30;;
2031;SDS011;27625;50.422;7.944;2023-01-04T16:13:42;3.00;;;1.43;;
2031;SDS011;27625;50.422;7.944;2023-01-04T16:16:11;4.20;;;2.70;;
2031;SDS011;27625;50.422;7.944;2023-01-04T16:18:43;2.40;;;1.70;;
2031;SDS011;27625;50.422;7.944;2023-01-04T16:21:10;2.40;;;1.60;;
2031;SDS011;27625;50.422;7.944;2023-01-04T16:23:37;2.80;;;1.87;;
2031;SDS011;27625;50.422;7.944;2023-01-04T16:26:09;2.63;;;1.87;;
2031;SDS011;27625;50.422;7.944;2023-01-04T16:28:39;2.87;;;2.30;;
2031;SDS011;27625;50.422;7.944;2023-01-04T16:31:08;2.20;;;1.57;;
2031;SDS011;27625;50.422;7.944;2023-01-04T16:33:35;6.00;;;1.70;;